sensor_id;sensor_type;location;lat;lon;timestamp;pressure;altitude;pressure_sealevel;temperature;humidity
72959;BME280;60008;50.826;6.896;2023-08-17T00:00:42;101248.72;;;20.92;100.00
72959;BME280;60008;50.826;6.896;2023-08-17T00:03:28;101253.53;;;20.90;100.00
72959;BME280;60008;50.826;6.896;2023-08-17T00:06:20;101248.72;;;20.92;100.00
72959;BME280;60008;50.826;6.896;2023-08-17T00:09:18;101255.56;;;20.94;100.00
72959;BME280;60008;50.826;6.896;2023-08-17T00:12:10;101251.28;;;20.80;100.00
72959;BME280;60008;50.826;6.896;2023-08-17T00:14:55;101268.84;;;20.89;100.00
72959;BME280;60008;50.826;6.896;2023-08-17T00:17:47;101275.47;;;20.93;100.00
72959;BME280;60008;50.826;6.896;2023-08-17T00:20:32;101269.78;;;20.70;100.00
72959;BME280;60008;50.826;6.896;2023-08-17T00:23:23;101279.28;;;20.72;100.00
72959;BME280;60008;50.826;6.896;2023-08-17T00:26:09;101275.13;;;20.76;100.00
72959;BME280;60008;50.826;6.896;2023-08-17T00:29:00;101276.94;;;20.89;100.00
72959;BME280;60008;50.826;6.896;2023-08-17T00:31:45;101275.63;;;20.98;100.00
72959;BME280;60008;50.826;6.896;2023-08-17T00:34:36;101277.81;;;20.76;100.00
72959;BME280;60008;50.826;6.896;2023-08-17T00:37:28;101279.25;;;20.79;100.00
72959;BME280;60008;50.826;6.896;2023-08-17T00:40:13;101285.72;;;20.71;100.00
72959;BME280;60008;50.826;6.896;2023-08-17T00:43:05;101286.38;;;20.67;100.00
72959;BME280;60008;50.826;6.896;2023-08-17T00:45:50;101282.66;;;20.55;100.00
72959;BME280;60008;50.826;6.896;2023-08-17T00:48:42;101284.78;;;20.46;100.00
72959;BME280;60008;50.826;6.896;2023-08-17T00:51:28;101273.38;;;20.51;100.00
72959;BME280;60008;50.826;6.896;2023-08-17T00:54:24;101271.69;;;20.56;100.00
72959;BME280;60008;50.826;6.896;2023-08-17T00:57:11;101268.16;;;20.56;100.00
72959;BME280;60008;50.826;6.896;2023-08-17T01:00:04;101262.78;;;20.49;100.00
72959;BME280;60008;50.826;6.896;2023-08-17T01:02:51;101264.88;;;20.47;100.00
72959;BME280;60008;50.826;6.896;2023-08-17T01:05:44;101250.56;;;20.53;100.00
72959;BME280;60008;50.826;6.896;2023-08-17T01:08:43;101249.50;;;20.61;100.00
72959;BME280;60008;50.826;6.896;2023-08-17T01:11:41;101266.91;;;20.58;100.00
72959;BME280;60008;50.826;6.896;2023-08-17T01:14:52;101256.63;;;20.42;100.00
72959;BME280;60008;50.826;6.896;2023-08-17T01:17:53;101259.72;;;20.46;100.00
72959;BME280;60008;50.826;6.896;2023-08-17T01:20:40;101257.63;;;20.41;100.00
72959;BME280;60008;50.826;6.896;2023-08-17T01:23:32;101260.13;;;20.43;100.00
72959;BME280;60008;50.826;6.896;2023-08-17T01:26:17;101257.63;;;20.41;100.00
72959;BME280;60008;50.826;6.896;2023-08-17T01:29:09;101252.09;;;20.30;100.00
72959;BME280;60008;50.826;6.896;2023-08-17T01:32:07;101247.53;;;20.30;100.00
72959;BME280;60008;50.826;6.896;2023-08-17T01:35:14;101243.38;;;20.34;100.00
72959;BME280;60008;50.826;6.896;2023-08-17T01:38:12;101253.97;;;20.29;100.00
72959;BME280;60008;50.826;6.896;2023-08-17T01:41:01;101260.56;;;20.40;100.00
72959;BME280;60008;50.826;6.896;2023-08-17T01:43:54;101263.69;;;20.30;100.00
72959;BME280;60008;50.826;6.896;2023-08-17T01:46:46;101263.47;;;20.38;100.00
72959;BME280;60008;50.826;6.896;2023-08-17T01:49:38;101252.28;;;20.35;100.00
72959;BME280;60008;50.826;6.896;2023-08-17T01:52:23;101251.47;;;20.28;100.00
72959;BME280;60008;50.826;6.896;2023-08-17T01:55:17;101254.78;;;20.23;100.00
72959;BME280;60008;50.826;6.896;2023-08-17T01:58:08;101260.38;;;20.28;100.00
72959;BME280;60008;50.826;6.896;2023-08-17T02:00:54;101259.53;;;20.28;100.00
72959;BME280;60008;50.826;6.896;2023-08-17T02:03:46;101254.16;;;20.21;100.00
72959;BME280;60008;50.826;6.896;2023-08-17T02:06:38;101258.53;;;20.15;100.00
72959;BME280;60008;50.826;6.896;2023-08-17T02:09:29;101250.22;;;20.24;100.00
72959;BME280;60008;50.826;6.896;2023-08-17T02:12:20;101263.25;;;20.20;100.00
72959;BME280;60008;50.826;6.896;2023-08-17T02:15:06;101266.59;;;20.29;100.00
72959;BME280;60008;50.826;6.896;2023-08-17T02:18:01;101262.66;;;20.18;100.00
72959;BME280;60008;50.826;6.896;2023-08-17T02:20:46;101259.56;;;20.01;100.00
72959;BME280;60008;50.826;6.896;2023-08-17T02:23:37;101254.59;;;20.11;100.00
72959;BME280;60008;50.826;6.896;2023-08-17T02:26:23;101249.38;;;20.16;100.00
72959;BME280;60008;50.826;6.896;2023-08-17T02:29:15;101250.22;;;20.24;100.00
72959;BME280;60008;50.826;6.896;2023-08-17T02:32:07;101245.47;;;20.19;100.00
72959;BME280;60008;50.826;6.896;2023-08-17T02:34:52;101241.31;;;20.16;100.00
72959;BME280;60008;50.826;6.896;2023-08-17T02:37:44;101247.75;;;20.15;100.00
72959;BME280;60008;50.826;6.896;2023-08-17T02:40:36;101240.09;;;20.12;100.00
72959;BME280;60008;50.826;6.896;2023-08-17T02:43:28;101232.44;;;20.16;100.00
72959;BME280;60008;50.826;6.896;2023-08-17T02:46:20;101227.06;;;20.16;100.00
72959;BME280;60008;50.826;6.896;2023-08-17T02:49:11;101229.53;;;20.24;100.00
72959;BME280;60008;50.826;6.896;2023-08-17T02:51:57;101221.25;;;20.12;100.00
72959;BME280;60008;50.826;6.896;2023-08-17T02:54:49;101224.78;;;20.06;100.00
72959;BME280;60008;50.826;6.896;2023-08-17T02:57:33;101221.25;;;20.19;100.00
72959;BME280;60008;50.826;6.896;2023-08-17T03:00:24;101209.66;;;20.12;100.00
72959;BME280;60008;50.826;6.896;2023-08-17T03:03:09;101210.72;;;20.24;100.00
72959;BME280;60008;50.826;6.896;2023-08-17T03:06:07;101218.56;;;20.19;100.00
72959;BME280;60008;50.826;6.896;2023-08-17T03:08:52;101221.66;;;20.16;100.00
72959;BME280;60008;50.826;6.896;2023-08-17T03:11:45;101221.03;;;20.14;100.00
72959;BME280;60008;50.826;6.896;2023-08-17T03:14:30;101217.50;;;20.20;100.00
72959;BME280;60008;50.826;6.896;2023-08-17T03:17:22;101210.91;;;20.16;100.00
72959;BME280;60008;50.826;6.896;2023-08-17T03:20:07;101205.47;;;20.23;100.00
72959;BME280;60008;50.826;6.896;2023-08-17T03:22:59;101204.66;;;20.22;100.00
72959;BME280;60008;50.826;6.896;2023-08-17T03:25:43;101205.91;;;20.19;100.00
72959;BME280;60008;50.826;6.896;2023-08-17T03:28:37;101201.97;;;20.29;100.00
72959;BME280;60008;50.826;6.896;2023-08-17T03:31:22;101198.88;;;20.32;100.00
72959;BME280;60008;50.826;6.896;2023-08-17T03:34:14;101196.16;;;20.38;100.00
72959;BME280;60008;50.826;6.896;2023-08-17T03:36:59;101204.03;;;20.33;100.00
72959;BME280;60008;50.826;6.896;2023-08-17T03:39:51;101202.97;;;20.41;100.00
72959;BME280;60008;50.826;6.896;2023-08-17T03:42:35;101202.56;;;20.37;100.00
72959;BME280;60008;50.826;6.896;2023-08-17T03:45:27;101200.31;;;20.34;100.00
72959;BME280;60008;50.826;6.896;2023-08-17T03:48:12;101206.72;;;20.33;100.00
72959;BME280;60008;50.826;6.896;2023-08-17T03:51:04;101212.50;;;20.37;100.00
72959;BME280;60008;50.826;6.896;2023-08-17T03:53:49;101208.97;;;20.43;100.00
72959;BME280;60008;50.826;6.896;2023-08-17T03:56:40;101204.00;;;20.40;100.00
72959;BME280;60008;50.826;6.896;2023-08-17T03:59:25;101212.31;;;20.32;100.00
72959;BME280;60008;50.826;6.896;2023-08-17T04:02:17;101209.66;;;20.25;100.00
72959;BME280;60008;50.826;6.896;2023-08-17T04:05:02;101224.16;;;20.24;100.00
72959;BME280;60008;50.826;6.896;2023-08-17T04:07:54;101229.13;;;20.27;100.00
72959;BME280;60008;50.826;6.896;2023-08-17T04:10:48;101232.63;;;20.28;100.00
72959;BME280;60008;50.826;6.896;2023-08-17T04:13:39;101226.22;;;20.15;100.00
72959;BME280;60008;50.826;6.896;2023-08-17T04:16:25;101229.97;;;20.08;100.00
72959;BME280;60008;50.826;6.896;2023-08-17T04:19:16;101233.06;;;20.11;100.00
72959;BME280;60008;50.826;6.896;2023-08-17T04:22:02;101226.25;;;20.02;100.00
72959;BME280;60008;50.826;6.896;2023-08-17T04:24:54;101237.22;;;20.01;100.00
72959;BME280;60008;50.826;6.896;2023-08-17T04:27:39;101240.34;;;19.91;100.00
72959;BME280;60008;50.826;6.896;2023-08-17T04:30:30;101245.75;;;19.78;100.00
72959;BME280;60008;50.826;6.896;2023-08-17T04:33:15;101252.97;;;19.91;100.00
72959;BME280;60008;50.826;6.896;2023-08-17T04:36:07;101253.59;;;19.93;100.00
72959;BME280;60008;50.826;6.896;2023-08-17T04:38:51;101251.09;;;20.04;100.00
72959;BME280;60008;50.826;6.896;2023-08-17T04:41:43;101254.63;;;20.05;100.00
72959;BME280;60008;50.826;6.896;2023-08-17T04:44:28;101261.03;;;19.84;100.00
72959;BME280;60008;50.826;6.896;2023-08-17T04:47:20;101251.72;;;19.87;100.00
72959;BME280;60008;50.826;6.896;2023-08-17T04:50:05;101260.63;;;19.87;100.00
72959;BME280;60008;50.826;6.896;2023-08-17T04:52:57;101254.00;;;19.90;100.00
72959;BME280;60008;50.826;6.896;2023-08-17T04:55:42;101263.13;;;19.76;100.00
72959;BME280;60008;50.826;6.896;2023-08-17T04:58:33;101266.44;;;19.78;100.00
72959;BME280;60008;50.826;6.896;2023-08-17T05:01:18;101267.91;;;19.67;100.00
72959;BME280;60008;50.826;6.896;2023-08-17T05:04:09;101269.13;;;19.78;100.00
72959;BME280;60008;50.826;6.896;2023-08-17T05:06:55;101269.75;;;19.67;100.00
72959;BME280;60008;50.826;6.896;2023-08-17T05:09:47;101270.38;;;19.75;100.00
72959;BME280;60008;50.826;6.896;2023-08-17T05:12:32;101280.09;;;19.89;100.00
72959;BME280;60008;50.826;6.896;2023-08-17T05:15:23;101273.25;;;19.87;100.00
72959;BME280;60008;50.826;6.896;2023-08-17T05:18:10;101255.25;;;19.87;100.00
72959;BME280;60008;50.826;6.896;2023-08-17T05:21:02;101264.38;;;19.86;100.00
72959;BME280;60008;50.826;6.896;2023-08-17T05:23:47;101268.06;;;20.05;100.00
72959;BME280;60008;50.826;6.896;2023-08-17T05:26:38;101269.94;;;19.98;100.00
72959;BME280;60008;50.826;6.896;2023-08-17T05:29:23;101266.84;;;19.75;100.00
72959;BME280;60008;50.826;6.896;2023-08-17T05:32:15;101271.38;;;19.54;100.00
72959;BME280;60008;50.826;6.896;2023-08-17T05:35:00;101272.63;;;19.52;100.00
72959;BME280;60008;50.826;6.896;2023-08-17T05:37:52;101274.06;;;19.68;100.00
72959;BME280;60008;50.826;6.896;2023-08-17T05:40:37;101274.72;;;19.56;100.00
72959;BME280;60008;50.826;6.896;2023-08-17T05:43:29;101277.41;;;19.63;100.00
72959;BME280;60008;50.826;6.896;2023-08-17T05:46:14;101271.59;;;19.46;100.00
72959;BME280;60008;50.826;6.896;2023-08-17T05:49:06;101272.03;;;19.56;100.00
72959;BME280;60008;50.826;6.896;2023-08-17T05:51:51;101275.97;;;19.67;100.00
72959;BME280;60008;50.826;6.896;2023-08-17T05:54:42;101283.19;;;19.67;100.00
72959;BME280;60008;50.826;6.896;2023-08-17T05:57:27;101287.34;;;19.69;100.00
72959;BME280;60008;50.826;6.896;2023-08-17T06:00:20;101277.00;;;19.66;100.00
72959;BME280;60008;50.826;6.896;2023-08-17T06:03:05;101284.66;;;19.76;100.00
72959;BME280;60008;50.826;6.896;2023-08-17T06:06:04;101280.31;;;19.62;100.00
72959;BME280;60008;50.826;6.896;2023-08-17T06:08:50;101283.63;;;19.70;100.00
72959;BME280;60008;50.826;6.896;2023-08-17T06:11:41;101275.56;;;19.70;100.00
72959;BME280;60008;50.826;6.896;2023-08-17T06:14:27;101287.56;;;19.81;100.00
72959;BME280;60008;50.826;6.896;2023-08-17T06:17:18;101290.66;;;19.78;100.00
72959;BME280;60008;50.826;6.896;2023-08-17T06:20:03;101280.09;;;19.83;100.00
72959;BME280;60008;50.826;6.896;2023-08-17T06:22:56;101278.41;;;19.95;100.00
72959;BME280;60008;50.826;6.896;2023-08-17T06:25:48;101279.06;;;19.64;100.00
72959;BME280;60008;50.826;6.896;2023-08-17T06:28:33;101288.97;;;19.77;100.00
72959;BME280;60008;50.826;6.896;2023-08-17T06:31:25;101288.56;;;19.73;100.00
72959;BME280;60008;50.826;6.896;2023-08-17T06:34:19;101284.00;;;19.74;100.00
72959;BME280;60008;50.826;6.896;2023-08-17T06:37:04;101285.47;;;19.96;100.00
72959;BME280;60008;50.826;6.896;2023-08-17T06:39:57;101282.97;;;20.07;100.00
72959;BME280;60008;50.826;6.896;2023-08-17T06:42:42;101270.34;;;20.01;100.00
72959;BME280;60008;50.826;6.896;2023-08-17T06:45:34;101282.97;;;20.07;100.00
72959;BME280;60008;50.826;6.896;2023-08-17T06:48:19;101279.84;;;20.24;100.00
72959;BME280;60008;50.826;6.896;2023-08-17T06:51:11;101270.94;;;20.30;100.00
72959;BME280;60008;50.826;6.896;2023-08-17T06:53:56;101265.72;;;20.41;100.00
72959;BME280;60008;50.826;6.896;2023-08-17T06:56:48;101267.00;;;20.32;100.00
72959;BME280;60008;50.826;6.896;2023-08-17T06:59:33;101278.34;;;20.47;100.00
72959;BME280;60008;50.826;6.896;2023-08-17T07:02:25;101279.59;;;20.51;100.00
72959;BME280;60008;50.826;6.896;2023-08-17T07:05:19;101279.84;;;20.30;100.00
72959;BME280;60008;50.826;6.896;2023-08-17T07:08:10;101282.66;;;20.55;100.00
72959;BME280;60008;50.826;6.896;2023-08-17T07:11:02;101286.19;;;20.55;100.00
72959;BME280;60008;50.826;6.896;2023-08-17T07:13:55;101272.47;;;20.63;100.00
72959;BME280;60008;50.826;6.896;2023-08-17T07:16:40;101275.13;;;20.76;100.00
72959;BME280;60008;50.826;6.896;2023-08-17T07:19:32;101288.16;;;20.86;100.00
72959;BME280;60008;50.826;6.896;2023-08-17T07:22:43;101285.47;;;20.79;100.00
72959;BME280;60008;50.826;6.896;2023-08-17T07:25:28;101291.38;;;21.01;100.00
72959;BME280;60008;50.826;6.896;2023-08-17T07:28:20;101292.47;;;20.94;100.00
72959;BME280;60008;50.826;6.896;2023-08-17T07:31:05;101292.59;;;20.67;100.00
72959;BME280;60008;50.826;6.896;2023-08-17T07:33:57;101302.63;;;20.92;100.00
72959;BME280;60008;50.826;6.896;2023-08-17T07:36:49;101302.53;;;20.60;100.00
72959;BME280;60008;50.826;6.896;2023-08-17T07:39:34;101305.22;;;20.67;100.00
72959;BME280;60008;50.826;6.896;2023-08-17T07:42:26;101304.09;;;20.88;100.00
72959;BME280;60008;50.826;6.896;2023-08-17T07:45:18;101314.94;;;20.74;100.00
72959;BME280;60008;50.826;6.896;2023-08-17T07:48:03;101318.00;;;20.85;100.00
72959;BME280;60008;50.826;6.896;2023-08-17T07:50:54;101321.13;;;20.82;100.00
72959;BME280;60008;50.826;6.896;2023-08-17T07:53:39;101324.56;;;21.02;100.00
72959;BME280;60008;50.826;6.896;2023-08-17T07:56:30;101311.69;;;21.17;100.00
72959;BME280;60008;50.826;6.896;2023-08-17T07:59:15;101309.38;;;21.52;100.00
72959;BME280;60008;50.826;6.896;2023-08-17T08:02:07;101298.59;;;21.76;100.00
72959;BME280;60008;50.826;6.896;2023-08-17T08:04:52;101304.75;;;21.59;100.00
72959;BME280;60008;50.826;6.896;2023-08-17T08:07:49;101302.34;;;21.75;100.00
72959;BME280;60008;50.826;6.896;2023-08-17T08:10:34;101307.00;;;21.62;100.00
72959;BME280;60008;50.826;6.896;2023-08-17T08:13:25;101308.16;;;21.48;100.00
72959;BME280;60008;50.826;6.896;2023-08-17T08:16:17;101321.88;;;21.40;100.00
72959;BME280;60008;50.826;6.896;2023-08-17T08:19:09;101322.94;;;20.88;100.00
72959;BME280;60008;50.826;6.896;2023-08-17T08:22:00;101323.72;;;21.14;100.00
72959;BME280;60008;50.826;6.896;2023-08-17T08:24:53;101306.41;;;21.28;100.00
72959;BME280;60008;50.826;6.896;2023-08-17T08:27:44;101316.69;;;21.07;100.00
72959;BME280;60008;50.826;6.896;2023-08-17T08:30:29;101313.53;;;21.16;100.00
72959;BME280;60008;50.826;6.896;2023-08-17T08:33:21;101315.06;;;21.37;100.00
72959;BME280;60008;50.826;6.896;2023-08-17T08:36:06;101294.19;;;21.57;100.00
72959;BME280;60008;50.826;6.896;2023-08-17T08:38:58;101297.75;;;21.51;100.00
72959;BME280;60008;50.826;6.896;2023-08-17T08:41:43;101283.88;;;21.72;100.00
72959;BME280;60008;50.826;6.896;2023-08-17T08:44:35;101309.72;;;21.62;100.00
72959;BME280;60008;50.826;6.896;2023-08-17T08:47:20;101297.66;;;21.64;100.00
72959;BME280;60008;50.826;6.896;2023-08-17T08:50:17;101299.00;;;21.49;100.00
72959;BME280;60008;50.826;6.896;2023-08-17T08:53:03;101301.00;;;21.28;100.00
72959;BME280;60008;50.826;6.896;2023-08-17T08:55:59;101298.44;;;21.40;100.00
72959;BME280;60008;50.826;6.896;2023-08-17T08:58:52;101296.41;;;21.35;100.00
72959;BME280;60008;50.826;6.896;2023-08-17T09:01:44;101294.50;;;21.43;100.00
72959;BME280;60008;50.826;6.896;2023-08-17T09:04:36;101292.41;;;21.69;100.00
72959;BME280;60008;50.826;6.896;2023-08-17T09:07:29;101283.16;;;21.83;100.00
72959;BME280;60008;50.826;6.896;2023-08-17T09:10:21;101291.31;;;21.52;100.00
72959;BME280;60008;50.826;6.896;2023-08-17T09:13:15;101284.94;;;21.71;100.00
72959;BME280;60008;50.826;6.896;2023-08-17T09:16:01;101278.53;;;21.41;100.00
72959;BME280;60008;50.826;6.896;2023-08-17T09:18:53;101277.16;;;21.57;100.00
72959;BME280;60008;50.826;6.896;2023-08-17T09:21:45;101276.84;;;21.71;100.00
72959;BME280;60008;50.826;6.896;2023-08-17T09:24:37;101280.91;;;21.80;100.00
72959;BME280;60008;50.826;6.896;2023-08-17T09:27:31;101278.75;;;21.96;100.00
72959;BME280;60008;50.826;6.896;2023-08-17T09:30:16;101271.44;;;21.96;100.00
72959;BME280;60008;50.826;6.896;2023-08-17T09:33:08;101277.38;;;21.86;100.00
72959;BME280;60008;50.826;6.896;2023-08-17T09:36:00;101271.25;;;21.98;100.00
72959;BME280;60008;50.826;6.896;2023-08-17T09:38:47;101267.88;;;22.02;100.00
72959;BME280;60008;50.826;6.896;2023-08-17T09:41:43;101262.94;;;22.17;100.00
72959;BME280;60008;50.826;6.896;2023-08-17T09:44:29;101260.75;;;22.26;100.00
72959;BME280;60008;50.826;6.896;2023-08-17T09:47:22;101262.41;;;22.09;100.00
72959;BME280;60008;50.826;6.896;2023-08-17T09:50:07;101255.28;;;22.14;100.00
72959;BME280;60008;50.826;6.896;2023-08-17T09:52:59;101253.75;;;21.75;100.00
72959;BME280;60008;50.826;6.896;2023-08-17T09:55:45;101251.00;;;21.82;100.00
72959;BME280;60008;50.826;6.896;2023-08-17T09:58:38;101245.50;;;21.70;100.00
72959;BME280;60008;50.826;6.896;2023-08-17T10:01:24;101256.56;;;22.12;100.00
72959;BME280;60008;50.826;6.896;2023-08-17T10:04:22;101247.28;;;22.44;100.00
72959;BME280;60008;50.826;6.896;2023-08-17T10:07:09;101250.41;;;22.41;100.00
72959;BME280;60008;50.826;6.896;2023-08-17T10:10:06;101247.56;;;22.54;100.00
72959;BME280;60008;50.826;6.896;2023-08-17T10:13:00;101234.97;;;23.26;100.00
72959;BME280;60008;50.826;6.896;2023-08-17T10:16:22;101237.50;;;22.79;100.00
72959;BME280;60008;50.826;6.896;2023-08-17T10:19:23;101235.84;;;22.78;100.00
72959;BME280;60008;50.826;6.896;2023-08-17T10:22:33;101241.78;;;22.50;100.00
72959;BME280;60008;50.826;6.896;2023-08-17T10:25:26;101238.88;;;22.34;100.00
72959;BME280;60008;50.826;6.896;2023-08-17T10:28:21;101238.13;;;22.09;100.00
72959;BME280;60008;50.826;6.896;2023-08-17T10:31:13;101240.78;;;21.66;100.00
72959;BME280;60008;50.826;6.896;2023-08-17T10:33:59;101251.31;;;21.99;100.00
72959;BME280;60008;50.826;6.896;2023-08-17T10:36:51;101240.66;;;22.22;100.00
72959;BME280;60008;50.826;6.896;2023-08-17T10:39:44;101248.31;;;22.43;100.00
72959;BME280;60008;50.826;6.896;2023-08-17T10:42:36;101250.56;;;22.46;100.00
72959;BME280;60008;50.826;6.896;2023-08-17T10:51:03;101264.66;;;22.12;100.00
72959;BME280;60008;50.826;6.896;2023-08-17T10:53:58;101269.81;;;21.95;100.00
72959;BME280;60008;50.826;6.896;2023-08-17T10:56:43;101269.81;;;21.95;100.00
72959;BME280;60008;50.826;6.896;2023-08-17T10:59:35;101284.84;;;22.09;100.00
72959;BME280;60008;50.826;6.896;2023-08-17T11:02:22;101276.19;;;21.76;100.00
72959;BME280;60008;50.826;6.896;2023-08-17T11:05:42;101280.25;;;21.60;100.00
72959;BME280;60008;50.826;6.896;2023-08-17T11:08:54;101261.19;;;21.80;100.00
72959;BME280;60008;50.826;6.896;2023-08-17T11:11:52;101271.00;;;21.74;100.00
72959;BME280;60008;50.826;6.896;2023-08-17T11:14:45;101273.72;;;21.50;100.00
72959;BME280;60008;50.826;6.896;2023-08-17T11:17:30;101280.47;;;21.59;100.00
72959;BME280;60008;50.826;6.896;2023-08-17T11:20:23;101290.34;;;21.96;100.00
72959;BME280;60008;50.826;6.896;2023-08-17T11:23:15;101268.38;;;21.92;100.00
72959;BME280;60008;50.826;6.896;2023-08-17T11:26:10;101266.09;;;22.32;100.00
72959;BME280;60008;50.826;6.896;2023-08-17T11:28:56;101255.94;;;22.10;100.00
72959;BME280;60008;50.826;6.896;2023-08-17T11:31:50;101269.03;;;22.49;100.00
72959;BME280;60008;50.826;6.896;2023-08-17T11:34:41;101267.38;;;22.48;100.00
72959;BME280;60008;50.826;6.896;2023-08-17T11:37:26;101268.88;;;22.44;100.00
72959;BME280;60008;50.826;6.896;2023-08-17T11:40:18;101268.66;;;22.45;100.00
72959;BME280;60008;50.826;6.896;2023-08-17T11:43:03;101262.28;;;22.22;100.00
72959;BME280;60008;50.826;6.896;2023-08-17T11:45:56;101280.81;;;21.93;100.00
72959;BME280;60008;50.826;6.896;2023-08-17T11:48:49;101269.25;;;22.11;100.00
72959;BME280;60008;50.826;6.896;2023-08-17T11:51:35;101261.97;;;22.12;100.00
72959;BME280;60008;50.826;6.896;2023-08-17T11:54:27;101258.81;;;22.51;100.00
72959;BME280;60008;50.826;6.896;2023-08-17T11:57:19;101257.91;;;22.57;100.00
72959;BME280;60008;50.826;6.896;2023-08-17T12:00:05;101245.91;;;22.53;100.00
72959;BME280;60008;50.826;6.896;2023-08-17T12:03:04;101251.34;;;22.71;100.00
72959;BME280;60008;50.826;6.896;2023-08-17T12:05:57;101255.72;;;22.84;100.00
72959;BME280;60008;50.826;6.896;2023-08-17T12:08:55;101252.72;;;23.33;100.00
72959;BME280;60008;50.826;6.896;2023-08-17T12:11:47;101236.44;;;23.86;100.00
72959;BME280;60008;50.826;6.896;2023-08-17T12:14:42;101248.84;;;23.94;100.00
72959;BME280;60008;50.826;6.896;2023-08-17T12:17:29;101254.47;;;24.04;100.00
72959;BME280;60008;50.826;6.896;2023-08-17T12:20:21;101258.84;;;23.29;100.00
72959;BME280;60008;50.826;6.896;2023-08-17T12:23:06;101264.69;;;23.55;100.00
72959;BME280;60008;50.826;6.896;2023-08-17T12:25:58;101246.72;;;23.96;100.00
72959;BME280;60008;50.826;6.896;2023-08-17T12:28:43;101250.13;;;24.14;100.00
72959;BME280;60008;50.826;6.896;2023-08-17T12:31:35;101247.88;;;23.88;100.00
72959;BME280;60008;50.826;6.896;2023-08-17T12:34:20;101258.38;;;23.32;100.00
72959;BME280;60008;50.826;6.896;2023-08-17T12:37:18;101244.56;;;23.40;100.00
72959;BME280;60008;50.826;6.896;2023-08-17T12:40:05;101246.03;;;24.12;100.00
72959;BME280;60008;50.826;6.896;2023-08-17T12:42:57;101239.66;;;24.30;100.00
72959;BME280;60008;50.826;6.896;2023-08-17T12:45:42;101238.22;;;23.69;100.00
72959;BME280;60008;50.826;6.896;2023-08-17T12:48:33;101244.97;;;22.95;100.00
72959;BME280;60008;50.826;6.896;2023-08-17T12:51:20;101246.44;;;23.62;100.00
72959;BME280;60008;50.826;6.896;2023-08-17T12:54:11;101237.88;;;23.77;100.00
72959;BME280;60008;50.826;6.896;2023-08-17T12:56:56;101236.56;;;24.03;100.00
72959;BME280;60008;50.826;6.896;2023-08-17T12:59:52;101228.69;;;23.66;100.00
72959;BME280;60008;50.826;6.896;2023-08-17T13:02:37;101224.56;;;23.99;100.00
72959;BME280;60008;50.826;6.896;2023-08-17T13:05:29;101223.16;;;24.08;100.00
72959;BME280;60008;50.826;6.896;2023-08-17T13:08:14;101233.53;;;23.88;100.00
72959;BME280;60008;50.826;6.896;2023-08-17T13:11:13;101230.00;;;23.87;100.00
72959;BME280;60008;50.826;6.896;2023-08-17T13:13:58;101230.09;;;24.04;100.00
72959;BME280;60008;50.826;6.896;2023-08-17T13:16:49;101228.78;;;23.60;100.00
72959;BME280;60008;50.826;6.896;2023-08-17T13:19:35;101225.16;;;24.01;100.00
72959;BME280;60008;50.826;6.896;2023-08-17T13:22:26;101216.22;;;23.89;100.00
72959;BME280;60008;50.826;6.896;2023-08-17T13:25:11;101222.09;;;23.97;100.00
72959;BME280;60008;50.826;6.896;2023-08-17T13:28:03;101208.84;;;24.47;100.00
72959;BME280;60008;50.826;6.896;2023-08-17T13:30:48;101201.28;;;24.49;100.00
72959;BME280;60008;50.826;6.896;2023-08-17T13:33:46;101197.94;;;24.19;100.00
72959;BME280;60008;50.826;6.896;2023-08-17T13:36:31;101198.41;;;24.27;100.00
72959;BME280;60008;50.826;6.896;2023-08-17T13:39:23;101191.00;;;24.23;100.00
72959;BME280;60008;50.826;6.896;2023-08-17T13:42:08;101182.00;;;24.34;100.00
72959;BME280;60008;50.826;6.896;2023-08-17T13:45:00;101184.53;;;23.43;100.00
72959;BME280;60008;50.826;6.896;2023-08-17T13:47:45;101180.50;;;24.03;100.00
72959;BME280;60008;50.826;6.896;2023-08-17T13:50:38;101174.84;;;24.28;100.00
72959;BME280;60008;50.826;6.896;2023-08-17T13:53:23;101168.06;;;23.91;100.00
72959;BME280;60008;50.826;6.896;2023-08-17T13:56:16;101175.13;;;24.15;100.00
72959;BME280;60008;50.826;6.896;2023-08-17T13:59:01;101171.56;;;24.14;100.00
72959;BME280;60008;50.826;6.896;2023-08-17T14:01:54;101163.94;;;23.88;100.00
72959;BME280;60008;50.826;6.896;2023-08-17T14:04:40;101167.50;;;23.77;100.00
72959;BME280;60008;50.826;6.896;2023-08-17T14:07:38;101165.00;;;23.87;100.00
72959;BME280;60008;50.826;6.896;2023-08-17T14:10:23;101159.03;;;23.50;100.00
72959;BME280;60008;50.826;6.896;2023-08-17T14:13:23;101148.66;;;23.70;100.00
72959;BME280;60008;50.826;6.896;2023-08-17T14:16:08;101145.09;;;23.93;100.00
72959;BME280;60008;50.826;6.896;2023-08-17T14:19:00;101143.38;;;23.64;100.00
72959;BME280;60008;50.826;6.896;2023-08-17T14:21:45;101140.72;;;23.92;100.00
72959;BME280;60008;50.826;6.896;2023-08-17T14:24:37;101140.81;;;24.32;100.00
72959;BME280;60008;50.826;6.896;2023-08-17T14:27:22;101138.31;;;24.31;100.00
72959;BME280;60008;50.826;6.896;2023-08-17T14:30:14;101146.38;;;24.14;100.00
72959;BME280;60008;50.826;6.896;2023-08-17T14:32:59;101137.28;;;24.20;100.00
72959;BME280;60008;50.826;6.896;2023-08-17T14:35:51;101124.66;;;24.25;100.00
72959;BME280;60008;50.826;6.896;2023-08-17T14:38:42;101122.97;;;23.96;100.00
72959;BME280;60008;50.826;6.896;2023-08-17T14:41:34;101124.53;;;24.32;100.00
72959;BME280;60008;50.826;6.896;2023-08-17T14:44:30;101123.53;;;24.38;100.00